Time;durP1;ratioP1;P1;durP2;ratioP2;P2;SDS_P1;SDS_P2;PMS_P1;PMS_P2;Temp;Humidity;BMP_temperature;BMP_pressure;BME280_temperature;BME280_humidity;BME280_pressure;Samples;Min_cycle;Max_cycle;Signal;HPM_P1;HPM_P2
2023/07/13 00:02:16;;;;;;;8.50;1.08;;;17.60;99.90;;;;;;5071817;28;20028;-56
2023/07/13 00:04:42;;;;;;;7.18;1.17;;;17.70;99.90;;;;;;5071733;28;20036;-59
2023/07/13 00:07:08;;;;;;;11.23;0.93;;;17.50;99.90;;;;;;5071525;28;20035;-58
2023/07/13 00:09:34;;;;;;;4.80;1.00;;;17.50;99.90;;;;;;5071599;28;20036;-58
2023/07/13 00:12:01;;;;;;;4.43;1.20;;;17.30;99.90;;;;;;5071764;28;20025;-52
2023/07/13 00:14:28;;;;;;;7.30;1.42;;;17.10;99.90;;;;;;5071709;28;20378;-56
2023/07/13 00:16:54;;;;;;;6.22;1.30;;;17.00;99.90;;;;;;5071773;28;20028;-56
2023/07/13 00:19:19;;;;;;;5.63;0.98;;;17.00;99.90;;;;;;5071523;28;20028;-52
2023/07/13 00:21:46;;;;;;;3.47;1.02;;;16.90;99.90;;;;;;5071754;28;20036;-60
2023/07/13 00:24:14;;;;;;;5.05;1.35;;;16.70;99.90;;;;;;5071187;28;20032;-60
2023/07/13 00:26:40;;;;;;;3.35;1.05;;;16.70;99.90;;;;;;5071732;28;20395;-58
2023/07/13 00:29:08;;;;;;;7.43;1.17;;;16.70;99.90;;;;;;5071107;28;20028;-52
2023/07/13 00:31:35;;;;;;;3.95;1.10;;;16.60;99.90;;;;;;5071459;28;20032;-58
2023/07/13 00:34:01;;;;;;;9.63;1.20;;;16.60;99.90;;;;;;5071423;28;20028;-57
2023/07/13 00:36:27;;;;;;;5.32;1.00;;;16.60;99.90;;;;;;5071435;28;20024;-60
2023/07/13 00:38:53;;;;;;;8.13;1.10;;;16.70;99.90;;;;;;5071170;28;20016;-60
2023/07/13 00:41:19;;;;;;;6.40;1.30;;;16.80;99.90;;;;;;5071302;28;20028;-59
2023/07/13 00:43:45;;;;;;;9.60;1.60;;;16.70;99.90;;;;;;5071398;28;20024;-58
2023/07/13 00:46:22;;;;;;;10.98;2.22;;;16.80;99.90;;;;;;5071040;28;20433;-58
2023/07/13 00:48:49;;;;;;;4.25;1.38;;;16.70;99.90;;;;;;5070957;28;20125;-59
2023/07/13 00:51:18;;;;;;;6.60;1.17;;;16.70;99.90;;;;;;5071004;28;20020;-60
2023/07/13 00:53:44;;;;;;;5.18;1.55;;;16.80;99.90;;;;;;5071233;28;20031;-60
2023/07/13 00:56:10;;;;;;;7.68;1.60;;;16.90;99.90;;;;;;5071011;28;20111;-60
2023/07/13 00:58:36;;;;;;;9.40;2.30;;;16.90;99.90;;;;;;5071076;28;20031;-53
2023/07/13 01:01:02;;;;;;;8.75;1.63;;;16.90;99.90;;;;;;5071085;28;20107;-57
2023/07/13 01:03:28;;;;;;;21.13;1.85;;;16.90;99.90;;;;;;5071233;28;20029;-58
2023/07/13 01:05:53;;;;;;;6.97;1.60;;;17.00;99.90;;;;;;5070965;28;20528;-59
2023/07/13 01:08:20;;;;;;;6.97;1.48;;;17.00;99.90;;;;;;5071073;28;20028;-59
2023/07/13 01:10:56;;;;;;;6.88;1.45;;;17.10;99.90;;;;;;5073128;28;20411;-54
2023/07/13 01:13:23;;;;;;;9.23;1.33;;;17.10;99.90;;;;;;5075239;28;20028;-56
2023/07/13 01:15:51;;;;;;;6.55;1.17;;;16.90;99.90;;;;;;5074974;28;20023;-57
2023/07/13 01:18:27;;;;;;;8.15;1.50;;;17.00;99.90;;;;;;5074692;28;20025;-54
2023/07/13 01:21:01;;;;;;;9.88;1.73;;;16.90;99.90;;;;;;5075035;28;20490;-58
2023/07/13 01:23:28;;;;;;;8.48;1.83;;;16.80;99.90;;;;;;5074818;28;20040;-54
2023/07/13 01:25:55;;;;;;;5.82;1.30;;;16.80;99.90;;;;;;5074727;28;20058;-58
2023/07/13 01:28:21;;;;;;;7.57;1.35;;;16.80;99.90;;;;;;5074611;28;20062;-56
2023/07/13 01:30:47;;;;;;;7.00;1.70;;;16.80;99.90;;;;;;5074586;28;20054;-59
2023/07/13 01:33:16;;;;;;;11.40;1.95;;;16.80;99.90;;;;;;5074591;28;20099;-57
2023/07/13 01:35:42;;;;;;;8.75;1.25;;;16.70;99.90;;;;;;5074541;28;20024;-52
2023/07/13 01:38:08;;;;;;;2.58;1.13;;;16.70;99.90;;;;;;5074428;28;20414;-57
2023/07/13 01:40:35;;;;;;;3.47;1.30;;;16.80;99.90;;;;;;5074547;28;20029;-59
2023/07/13 01:43:00;;;;;;;8.05;1.42;;;16.80;99.90;;;;;;5074364;28;20044;-59
2023/07/13 01:45:26;;;;;;;3.03;1.08;;;16.80;99.90;;;;;;5074321;28;20390;-60
2023/07/13 01:47:51;;;;;;;5.43;1.20;;;16.80;99.90;;;;;;5074214;28;20032;-57
2023/07/13 01:50:17;;;;;;;5.60;1.13;;;16.80;99.90;;;;;;5074115;28;20028;-58
2023/07/13 01:52:43;;;;;;;10.63;1.10;;;16.80;99.90;;;;;;5074395;28;20024;-59
2023/07/13 01:55:09;;;;;;;8.65;1.30;;;16.70;99.90;;;;;;5074079;28;20021;-59
2023/07/13 01:57:34;;;;;;;5.43;1.27;;;16.80;99.90;;;;;;5074419;28;20198;-59
2023/07/13 02:00:04;;;;;;;4.57;0.85;;;16.70;99.90;;;;;;5073812;28;20032;-60
2023/07/13 02:02:30;;;;;;;5.03;1.17;;;16.70;99.90;;;;;;5074358;28;20631;-55
2023/07/13 02:04:55;;;;;;;4.57;0.95;;;16.70;99.90;;;;;;5073913;28;20116;-54
2023/07/13 02:07:21;;;;;;;2.88;1.30;;;16.60;99.90;;;;;;5073965;28;20028;-53
2023/07/13 02:09:47;;;;;;;6.47;1.10;;;16.50;99.90;;;;;;5073824;28;20441;-60
2023/07/13 02:12:12;;;;;;;5.55;1.48;;;16.40;99.90;;;;;;5073889;28;20074;-61
2023/07/13 02:14:38;;;;;;;3.17;1.10;;;16.30;99.90;;;;;;5073697;28;20029;-54
2023/07/13 02:17:04;;;;;;;10.85;1.42;;;16.10;99.90;;;;;;5073655;28;20081;-59
2023/07/13 02:19:30;;;;;;;6.35;1.08;;;16.10;99.90;;;;;;5073692;28;20031;-59
2023/07/13 02:21:55;;;;;;;7.75;1.20;;;16.00;99.90;;;;;;5073130;28;20025;-60
2023/07/13 02:24:21;;;;;;;6.53;1.05;;;16.00;99.90;;;;;;5073693;28;20027;-59
2023/07/13 02:26:47;;;;;;;7.07;1.48;;;16.00;99.90;;;;;;5073673;28;20035;-58
2023/07/13 02:29:13;;;;;;;5.07;1.13;;;15.80;99.90;;;;;;5073232;28;20150;-59
2023/07/13 02:31:38;;;;;;;3.45;1.33;;;15.70;99.90;;;;;;5073528;28;20154;-61
2023/07/13 02:34:04;;;;;;;11.50;1.60;;;15.60;99.90;;;;;;5073329;28;20103;-61
2023/07/13 02:36:31;;;;;;;5.75;1.90;;;15.50;99.90;;;;;;5073544;28;20021;-59
2023/07/13 02:39:01;;;;;;;4.95;1.70;;;15.30;99.90;;;;;;5073118;28;20028;-60
2023/07/13 02:41:26;;;;;;;3.50;1.10;;;15.30;99.90;;;;;;5073333;28;20036;-58
2023/07/13 02:43:52;;;;;;;10.32;2.17;;;15.30;99.90;;;;;;5073395;28;20249;-61
2023/07/13 02:46:19;;;;;;;6.55;2.00;;;15.20;99.90;;;;;;5073373;28;20020;-59
2023/07/13 02:48:44;;;;;;;6.93;1.77;;;15.20;99.90;;;;;;5073092;28;20031;-59
2023/07/13 02:51:10;;;;;;;9.93;1.52;;;15.10;99.90;;;;;;5073122;28;20096;-51
2023/07/13 02:53:36;;;;;;;6.30;1.50;;;15.10;99.90;;;;;;5073268;28;20078;-58
2023/07/13 02:56:02;;;;;;;8.20;1.60;;;15.10;99.90;;;;;;5072987;28;20071;-59
2023/07/13 02:58:27;;;;;;;8.68;1.83;;;15.10;99.90;;;;;;5072824;28;20021;-61
2023/07/13 03:00:53;;;;;;;9.07;1.33;;;15.00;99.90;;;;;;5072973;28;20482;-58
2023/07/13 03:03:19;;;;;;;8.80;1.55;;;15.00;99.90;;;;;;5073092;28;20482;-59
2023/07/13 03:05:50;;;;;;;10.70;1.75;;;14.90;99.90;;;;;;5072975;28;20764;-57
2023/07/13 03:08:16;;;;;;;4.35;1.63;;;14.90;99.90;;;;;;5072706;28;20059;-54
2023/07/13 03:10:41;;;;;;;8.05;1.58;;;14.80;99.90;;;;;;5072759;28;20012;-54
2023/07/13 03:13:07;;;;;;;9.05;1.80;;;14.80;99.90;;;;;;5072643;28;20029;-59
2023/07/13 03:15:33;;;;;;;7.22;1.58;;;14.80;99.90;;;;;;5072560;28;20020;-60
2023/07/13 03:17:58;;;;;;;5.95;1.80;;;14.80;99.90;;;;;;5072601;28;20036;-59
2023/07/13 03:20:24;;;;;;;5.85;1.63;;;14.90;99.90;;;;;;5072567;28;20051;-59
2023/07/13 03:22:49;;;;;;;5.88;1.70;;;14.80;99.90;;;;;;5072666;28;20040;-61
2023/07/13 03:25:15;;;;;;;3.00;1.35;;;14.80;99.90;;;;;;5072390;28;20033;-61
2023/07/13 03:27:40;;;;;;;5.20;1.73;;;14.80;99.90;;;;;;5072269;28;20049;-52
2023/07/13 03:30:07;;;;;;;6.32;1.73;;;14.90;99.90;;;;;;5072172;28;20439;-55
2023/07/13 03:32:32;;;;;;;6.05;1.60;;;14.90;99.90;;;;;;5072413;28;20021;-54
2023/07/13 03:34:58;;;;;;;5.38;1.90;;;14.90;99.90;;;;;;5071215;28;20347;-60
2023/07/13 03:37:24;;;;;;;2.40;1.33;;;14.90;99.90;;;;;;5072318;28;20031;-57
2023/07/13 03:39:49;;;;;;;9.23;1.63;;;14.80;99.90;;;;;;5072037;28;20035;-57
2023/07/13 03:42:15;;;;;;;8.40;1.42;;;14.90;99.90;;;;;;5071973;28;20042;-59
2023/07/13 03:44:42;;;;;;;8.57;1.58;;;14.90;99.90;;;;;;5072054;28;20031;-61
2023/07/13 03:47:08;;;;;;;9.57;1.60;;;14.90;99.90;;;;;;5071953;28;20036;-59
2023/07/13 03:49:34;;;;;;;4.82;1.48;;;14.90;99.90;;;;;;5071956;28;20020;-58
2023/07/13 03:52:00;;;;;;;8.40;1.58;;;14.80;99.90;;;;;;5072083;28;20093;-59
2023/07/13 03:54:26;;;;;;;5.97;1.40;;;14.80;99.90;;;;;;5071949;28;20052;-61
2023/07/13 03:56:51;;;;;;;5.82;1.52;;;14.90;99.90;;;;;;5071808;28;20099;-61
2023/07/13 03:59:17;;;;;;;7.35;1.77;;;14.80;99.90;;;;;;5071634;28;20032;-61
2023/07/13 04:01:44;;;;;;;6.38;1.65;;;14.90;99.90;;;;;;5071920;28;20122;-59
2023/07/13 04:04:09;;;;;;;4.03;1.50;;;14.90;99.90;;;;;;5071736;28;20020;-59
2023/07/13 04:06:35;;;;;;;5.03;1.48;;;14.80;99.90;;;;;;5071939;28;20028;-56
2023/07/13 04:09:05;;;;;;;7.47;1.30;;;14.90;99.90;;;;;;5071520;28;20024;-56
2023/07/13 04:11:32;;;;;;;4.70;1.42;;;14.70;99.90;;;;;;5071702;28;20016;-55
2023/07/13 04:13:58;;;;;;;7.85;1.98;;;14.60;99.90;;;;;;5071478;28;20645;-54
2023/07/13 04:16:24;;;;;;;3.90;1.45;;;14.40;99.90;;;;;;5071697;28;20024;-59
2023/07/13 04:18:54;;;;;;;9.80;2.33;;;14.40;99.90;;;;;;5071474;28;20383;-58
2023/07/13 04:21:20;;;;;;;17.05;2.00;;;14.40;99.90;;;;;;5071671;28;20394;-58
2023/07/13 04:23:46;;;;;;;6.40;1.80;;;14.40;99.90;;;;;;5071506;28;20039;-58
2023/07/13 04:26:11;;;;;;;11.80;2.63;;;14.50;99.90;;;;;;5071362;28;20024;-59
2023/07/13 04:28:37;;;;;;;4.20;1.33;;;14.70;99.90;;;;;;5071121;28;20033;-58
2023/07/13 04:31:03;;;;;;;2.83;1.30;;;14.70;99.90;;;;;;5071248;28;20025;-60
2023/07/13 04:33:29;;;;;;;5.30;1.65;;;14.80;99.90;;;;;;5071444;28;20016;-56
2023/07/13 04:35:56;;;;;;;6.10;1.60;;;14.80;99.90;;;;;;5071193;28;20108;-56
2023/07/13 04:38:27;;;;;;;7.60;1.80;;;14.90;99.90;;;;;;5071178;28;20509;-57
2023/07/13 04:40:54;;;;;;;8.30;1.60;;;14.90;99.90;;;;;;5071229;28;20567;-59
2023/07/13 04:43:19;;;;;;;6.63;1.55;;;15.10;99.90;;;;;;5071573;28;20398;-61
2023/07/13 04:45:45;;;;;;;6.10;1.70;;;15.20;99.90;;;;;;5070954;28;20032;-56
2023/07/13 04:48:11;;;;;;;8.13;2.25;;;15.20;99.90;;;;;;5071177;28;20024;-57
2023/07/13 04:50:37;;;;;;;9.63;1.83;;;15.10;99.90;;;;;;5070974;28;20025;-58
2023/07/13 04:53:03;;;;;;;14.50;4.05;;;15.20;99.90;;;;;;5071044;28;20024;-57
2023/07/13 04:55:30;;;;;;;7.15;2.08;;;15.40;99.90;;;;;;5071132;28;20045;-58
2023/07/13 04:57:56;;;;;;;6.93;2.05;;;15.50;99.90;;;;;;5070916;28;20024;-58
2023/07/13 05:00:22;;;;;;;7.13;1.85;;;15.50;99.90;;;;;;5070999;28;20037;-59
2023/07/13 05:02:47;;;;;;;5.25;1.45;;;15.40;99.90;;;;;;5071188;28;20029;-56
2023/07/13 05:05:13;;;;;;;5.20;1.63;;;15.60;99.90;;;;;;5070910;28;20161;-57
2023/07/13 05:07:39;;;;;;;5.45;1.50;;;15.50;99.90;;;;;;5070904;28;20028;-61
2023/07/13 05:10:05;;;;;;;5.47;1.40;;;15.60;99.90;;;;;;5070951;28;20020;-59
2023/07/13 05:12:30;;;;;;;5.97;1.60;;;15.70;99.90;;;;;;5071054;28;20017;-61
2023/07/13 05:14:56;;;;;;;8.18;1.77;;;15.80;99.90;;;;;;5070860;28;20051;-59
2023/07/13 05:17:22;;;;;;;6.85;1.60;;;16.00;99.90;;;;;;5071033;28;20025;-60
2023/07/13 05:19:47;;;;;;;9.52;2.05;;;16.00;99.90;;;;;;5069606;28;20025;-57
2023/07/13 05:22:13;;;;;;;9.13;2.13;;;16.10;99.90;;;;;;5070831;28;20085;-59
2023/07/13 05:24:38;;;;;;;4.38;1.80;;;16.20;99.90;;;;;;5070896;28;20427;-59
2023/07/13 05:27:04;;;;;;;5.07;1.58;;;16.30;99.90;;;;;;5070729;28;20029;-59
2023/07/13 05:29:29;;;;;;;7.22;1.77;;;16.40;99.90;;;;;;5070648;28;20385;-56
2023/07/13 05:31:55;;;;;;;6.88;1.77;;;16.50;99.90;;;;;;5069481;28;20024;-58
2023/07/13 05:34:21;;;;;;;6.57;1.50;;;16.50;99.90;;;;;;5070794;28;20020;-59
2023/07/13 05:36:46;;;;;;;8.73;1.95;;;16.60;99.90;;;;;;5070749;28;20024;-55
2023/07/13 05:39:12;;;;;;;3.40;1.25;;;16.70;99.90;;;;;;5070451;28;20233;-56
2023/07/13 05:41:37;;;;;;;9.07;1.35;;;16.80;99.90;;;;;;5070662;28;20052;-58
2023/07/13 05:44:03;;;;;;;11.20;1.38;;;16.90;99.90;;;;;;5070661;28;20028;-60
2023/07/13 05:46:28;;;;;;;6.78;1.73;;;16.90;99.90;;;;;;5070759;28;20021;-59
2023/07/13 05:48:54;;;;;;;9.13;1.50;;;17.00;99.90;;;;;;5070363;28;20036;-58
2023/07/13 05:51:19;;;;;;;4.22;1.40;;;17.00;99.90;;;;;;5070462;28;20395;-60
2023/07/13 05:53:45;;;;;;;4.63;1.30;;;17.10;99.90;;;;;;5070663;28;20036;-61
2023/07/13 05:56:11;;;;;;;8.25;1.20;;;17.20;99.90;;;;;;5070487;28;20398;-58
2023/07/13 05:58:37;;;;;;;14.95;1.58;;;17.20;99.90;;;;;;5073471;28;20032;-59
2023/07/13 06:01:06;;;;;;;13.13;1.50;;;17.30;99.90;;;;;;5074118;28;20104;-53
2023/07/13 06:03:32;;;;;;;6.15;1.20;;;17.30;99.90;;;;;;5074173;28;20383;-58
2023/07/13 06:05:57;;;;;;;8.70;1.55;;;17.40;99.90;;;;;;5073877;28;20020;-60
2023/07/13 06:08:23;;;;;;;3.80;1.27;;;17.40;99.90;;;;;;5073942;28;20040;-57
2023/07/13 06:10:48;;;;;;;7.20;1.25;;;17.40;99.90;;;;;;5073962;28;20027;-55
2023/07/13 06:13:14;;;;;;;13.80;2.17;;;17.40;99.90;;;;;;5073897;28;20028;-59
2023/07/13 06:15:39;;;;;;;9.93;1.65;;;17.50;99.90;;;;;;5073584;28;20029;-54
2023/07/13 06:18:05;;;;;;;8.23;1.73;;;17.40;99.90;;;;;;5073532;28;20036;-59
2023/07/13 06:20:34;;;;;;;8.00;1.92;;;17.50;99.90;;;;;;5073736;28;20027;-51
2023/07/13 06:23:01;;;;;;;10.68;1.95;;;17.50;99.90;;;;;;5073854;28;20108;-56
2023/07/13 06:25:27;;;;;;;6.70;1.23;;;17.50;99.90;;;;;;5073824;28;20036;-59
2023/07/13 06:27:52;;;;;;;5.63;1.40;;;17.60;99.90;;;;;;5073681;28;20340;-59
2023/07/13 06:30:18;;;;;;;6.50;2.00;;;17.70;99.90;;;;;;5073356;28;20513;-61
2023/07/13 06:32:43;;;;;;;4.65;1.65;;;17.80;99.90;;;;;;5073575;28;20036;-61
2023/07/13 06:35:12;;;;;;;10.02;1.52;;;17.80;99.90;;;;;;5073260;28;20032;-58
2023/07/13 06:37:38;;;;;;;8.38;1.58;;;17.80;99.90;;;;;;5073538;28;20501;-55
2023/07/13 06:40:04;;;;;;;6.40;1.70;;;17.80;99.90;;;;;;5073259;28;20037;-58
2023/07/13 06:42:29;;;;;;;6.97;1.92;;;17.90;99.90;;;;;;5073450;28;20028;-59
2023/07/13 06:44:55;;;;;;;21.50;2.28;;;17.80;99.90;;;;;;5073207;28;20103;-60
2023/07/13 06:47:20;;;;;;;4.35;1.48;;;17.90;99.90;;;;;;5073317;28;20047;-59
2023/07/13 06:49:46;;;;;;;10.68;2.17;;;17.90;99.90;;;;;;5073174;28;20024;-57
2023/07/13 06:52:11;;;;;;;9.60;1.75;;;18.00;99.90;;;;;;5073451;28;20025;-58
2023/07/13 06:54:37;;;;;;;10.93;1.55;;;18.00;99.90;;;;;;5073205;28;20111;-57
2023/07/13 06:57:02;;;;;;;12.95;2.15;;;18.10;99.90;;;;;;5073130;28;20047;-59
2023/07/13 06:59:28;;;;;;;12.75;2.05;;;18.10;99.90;;;;;;5073286;28;20034;-58
2023/07/13 07:01:53;;;;;;;9.32;2.10;;;18.10;99.90;;;;;;5073286;28;20035;-55
2023/07/13 07:04:19;;;;;;;6.50;1.55;;;18.00;99.90;;;;;;5072956;28;20123;-61
2023/07/13 07:06:45;;;;;;;10.80;1.88;;;18.00;99.90;;;;;;5073055;28;20048;-61
2023/07/13 07:09:11;;;;;;;5.82;2.15;;;18.10;99.90;;;;;;5072159;28;20059;-61
2023/07/13 07:11:36;;;;;;;11.70;2.17;;;18.20;99.90;;;;;;5072838;28;20044;-61
2023/07/13 07:14:02;;;;;;;15.90;2.20;;;18.20;99.90;;;;;;5072782;28;20371;-57
2023/07/13 07:16:27;;;;;;;9.40;1.85;;;18.30;99.90;;;;;;5072752;28;20026;-58
2023/07/13 07:18:53;;;;;;;14.32;2.40;;;18.40;99.90;;;;;;5072520;28;20033;-58
2023/07/13 07:21:19;;;;;;;9.73;1.95;;;18.50;99.90;;;;;;5072746;28;20028;-60
2023/07/13 07:23:46;;;;;;;6.65;1.77;;;18.50;99.90;;;;;;5072474;28;20114;-57
2023/07/13 07:26:11;;;;;;;6.65;1.77;;;18.40;99.90;;;;;;5072515;28;20029;-58
2023/07/13 07:28:37;;;;;;;10.70;2.33;;;18.50;99.90;;;;;;5072360;28;20090;-57
2023/07/13 07:31:02;;;;;;;13.00;1.80;;;18.50;99.90;;;;;;5072513;28;20399;-57
2023/07/13 07:33:28;;;;;;;7.07;1.88;;;18.50;99.90;;;;;;5072392;28;20490;-57
2023/07/13 07:35:53;;;;;;;4.57;1.58;;;18.50;99.90;;;;;;5072352;28;20026;-59
2023/07/13 07:38:19;;;;;;;7.65;1.70;;;18.60;99.90;;;;;;5072009;28;20024;-57
2023/07/13 07:40:45;;;;;;;6.78;2.10;;;18.70;99.90;;;;;;5072028;28;20082;-57
2023/07/13 07:43:12;;;;;;;13.23;1.88;;;18.90;99.90;;;;;;5072328;28;20093;-60
2023/07/13 07:45:39;;;;;;;7.57;1.95;;;19.10;99.90;;;;;;5071976;28;20394;-57
2023/07/13 07:48:06;;;;;;;7.88;1.55;;;19.30;99.90;;;;;;5072298;28;20024;-60
2023/07/13 07:50:31;;;;;;;8.07;1.63;;;19.40;99.90;;;;;;5072387;28;20035;-56
2023/07/13 07:52:57;;;;;;;7.40;1.50;;;19.30;99.90;;;;;;5072396;28;20029;-57
2023/07/13 07:55:25;;;;;;;10.77;1.80;;;19.30;99.90;;;;;;5072125;28;20025;-58
2023/07/13 07:57:51;;;;;;;10.25;3.08;;;19.30;99.90;;;;;;5072060;28;20027;-57
2023/07/13 08:00:17;;;;;;;7.88;1.88;;;19.40;99.90;;;;;;5072013;28;20024;-58
2023/07/13 08:02:43;;;;;;;7.03;2.03;;;19.40;99.90;;;;;;5071991;28;20032;-57
2023/07/13 08:05:09;;;;;;;7.72;1.80;;;19.40;99.90;;;;;;5072161;28;20631;-57
2023/07/13 08:07:39;;;;;;;8.07;1.83;;;19.40;99.90;;;;;;5072261;28;20043;-58
2023/07/13 08:10:08;;;;;;;9.15;1.63;;;19.50;99.90;;;;;;5071523;28;20066;-60
2023/07/13 08:12:38;;;;;;;11.18;1.63;;;19.50;99.90;;;;;;5072411;28;20031;-58
2023/07/13 08:15:05;;;;;;;8.52;1.75;;;19.50;99.90;;;;;;5071928;28;20081;-57
2023/07/13 08:17:31;;;;;;;12.57;2.10;;;19.60;99.90;;;;;;5071779;28;20025;-60
2023/07/13 08:19:57;;;;;;;7.78;1.80;;;19.60;99.90;;;;;;5071021;28;20486;-55
2023/07/13 08:22:23;;;;;;;10.23;1.83;;;19.70;99.90;;;;;;5072025;28;20032;-61
2023/07/13 08:24:55;;;;;;;9.23;2.13;;;19.80;99.90;;;;;;5071685;28;20109;-58
2023/07/13 08:27:21;;;;;;;10.55;1.95;;;19.80;99.90;;;;;;5071506;28;20103;-60
2023/07/13 08:29:48;;;;;;;12.27;2.00;;;20.00;99.90;;;;;;5071200;28;20020;-58
2023/07/13 08:32:13;;;;;;;9.02;1.75;;;19.90;99.90;;;;;;5071404;28;20021;-60
2023/07/13 08:34:39;;;;;;;10.27;1.90;;;19.80;99.90;;;;;;5071510;28;20371;-60
2023/07/13 08:37:06;;;;;;;7.75;1.85;;;19.80;99.90;;;;;;5071239;28;20082;-57
2023/07/13 08:39:32;;;;;;;8.55;1.98;;;19.90;99.90;;;;;;5071237;28;20161;-60
2023/07/13 08:42:12;;;;;;;6.63;1.50;;;20.00;99.90;;;;;;5071259;28;20035;-58
2023/07/13 08:44:53;;;;;;;6.55;1.42;;;20.10;99.90;;;;;;5071488;28;20017;-60
2023/07/13 08:47:22;;;;;;;7.18;1.98;;;20.20;99.90;;;;;;5071161;28;20016;-60
2023/07/13 08:49:48;;;;;;;8.15;1.40;;;20.20;99.90;;;;;;5071143;28;20028;-60
2023/07/13 08:52:26;;;;;;;8.27;1.85;;;20.10;99.90;;;;;;5071283;28;20028;-60
2023/07/13 08:54:54;;;;;;;6.97;2.28;;;20.20;99.90;;;;;;5071240;28;20051;-59
2023/07/13 08:57:23;;;;;;;5.63;1.48;;;20.30;99.90;;;;;;5071134;28;20517;-60
2023/07/13 08:59:49;;;;;;;7.75;1.42;;;20.40;99.90;;;;;;5071201;28;20051;-61
2023/07/13 09:02:25;;;;;;;6.80;1.70;;;20.40;99.90;;;;;;5071211;28;20028;-61
2023/07/13 09:04:59;;;;;;;5.75;1.60;;;20.50;99.90;;;;;;5071200;28;20025;-60
2023/07/13 09:08:01;;;;;;;7.45;1.55;;;20.40;99.90;;;;;;5071102;28;20162;-59
2023/07/13 09:10:30;;;;;;;5.20;1.63;;;20.50;99.90;;;;;;5070963;28;20032;-59
2023/07/13 09:13:35;;;;;;;3.92;1.20;;;20.40;99.90;;;;;;5071004;28;20032;-59
2023/07/13 09:16:01;;;;;;;4.97;1.00;;;20.40;99.90;;;;;;5070994;28;20053;-61
2023/07/13 09:18:35;;;;;;;6.00;2.13;;;20.50;99.90;;;;;;5070866;28;20487;-59
2023/07/13 09:21:10;;;;;;;8.98;1.83;;;20.60;99.90;;;;;;5070986;28;20032;-60
2023/07/13 09:23:36;;;;;;;;;;;20.60;99.90;;;;;;5071560;28;20492;-59
2023/07/13 09:26:13;;;;;;;6.32;1.42;;;20.70;99.90;;;;;;5070655;28;19911;-59
2023/07/13 09:28:42;;;;;;;7.05;1.48;;;20.90;99.90;;;;;;5070643;28;20503;-61
2023/07/13 09:31:34;;;;;;;6.30;2.00;;;21.10;99.90;;;;;;5070853;28;20441;-61
2023/07/13 09:33:59;;;;;;;7.57;1.73;;;21.30;99.90;;;;;;5074764;28;20020;-60
2023/07/13 09:36:29;;;;;;;10.38;1.70;;;21.20;99.90;;;;;;5074469;28;20398;-60
2023/07/13 09:39:14;;;;;;;6.13;1.30;;;21.20;99.90;;;;;;5074492;28;20037;-60
2023/07/13 09:42:10;;;;;;;4.80;1.42;;;21.20;99.90;;;;;;5074584;28;20044;-61
2023/07/13 09:44:38;;;;;;;7.38;2.05;;;21.50;99.90;;;;;;5074418;28;20028;-58
2023/07/13 09:47:16;;;;;;;6.55;1.23;;;21.60;99.90;;;;;;5074361;28;20020;-55
2023/07/13 09:49:43;;;;;;;5.22;1.20;;;21.70;99.90;;;;;;5074331;28;20021;-56
2023/07/13 09:52:13;;;;;;;3.53;1.08;;;21.90;99.90;;;;;;5074359;28;20491;-58
2023/07/13 09:54:39;;;;;;;5.05;1.30;;;21.80;99.90;;;;;;5074528;28;20154;-57
2023/07/13 09:57:25;;;;;;;4.47;1.17;;;21.90;99.90;;;;;;5074206;28;20095;-59
2023/07/13 09:59:53;;;;;;;4.88;1.60;;;21.90;99.90;;;;;;5074273;28;20077;-57
2023/07/13 10:02:29;;;;;;;5.18;0.90;;;21.90;99.90;;;;;;5074208;28;20032;-58
2023/07/13 10:04:58;;;;;;;5.25;1.33;;;22.00;99.90;;;;;;5074226;28;20095;-61
2023/07/13 10:07:24;;;;;;;5.75;1.35;;;21.80;99.90;;;;;;5074158;28;20032;-57
2023/07/13 10:09:57;;;;;;;3.38;1.33;;;21.60;99.90;;;;;;5074001;28;20024;-58
2023/07/13 10:12:24;;;;;;;8.35;1.10;;;21.60;99.90;;;;;;5074205;28;20103;-58
2023/07/13 10:14:54;;;;;;;8.88;1.20;;;21.80;99.90;;;;;;5073941;28;20094;-60
2023/07/13 10:17:30;;;;;;;4.75;1.02;;;22.00;99.90;;;;;;5073894;28;20474;-59
2023/07/13 10:19:59;;;;;;;11.57;1.40;;;22.20;99.90;;;;;;5073729;28;20433;-59
2023/07/13 10:22:40;;;;;;;10.77;1.70;;;22.80;99.90;;;;;;5074023;28;20044;-60
2023/07/13 10:25:19;;;;;;;10.00;1.55;;;23.40;99.90;;;;;;5073880;28;20135;-58
2023/07/13 10:27:45;;;;;;;6.82;1.25;;;23.10;99.90;;;;;;5073855;28;20024;-60
2023/07/13 10:30:25;;;;;;;7.20;1.23;;;23.20;99.90;;;;;;5073624;28;20092;-60
2023/07/13 10:32:52;;;;;;;3.22;1.10;;;23.20;99.90;;;;;;5073993;28;20023;-55
2023/07/13 10:35:19;;;;;;;8.25;1.95;;;23.40;99.90;;;;;;5073699;28;20040;-58
2023/07/13 10:37:49;;;;;;;4.88;1.17;;;23.40;99.90;;;;;;5073697;28;20082;-58
2023/07/13 10:40:29;;;;;;;6.82;1.40;;;23.30;99.90;;;;;;5073473;28;20024;-60
2023/07/13 10:42:58;;;;;;;5.53;1.00;;;23.70;99.90;;;;;;5072930;28;20037;-61
2023/07/13 10:45:26;;;;;;;2.65;1.15;;;24.20;99.90;;;;;;5073470;28;20052;-59
2023/07/13 10:47:55;;;;;;;4.03;1.13;;;24.40;99.90;;;;;;5073362;28;20099;-58
2023/07/13 10:50:26;;;;;;;10.93;1.10;;;24.30;99.90;;;;;;5073342;28;20029;-60
2023/07/13 10:53:01;;;;;;;12.38;1.35;;;24.10;99.90;;;;;;5073564;28;20021;-59
2023/07/13 10:55:47;;;;;;;7.30;1.23;;;23.80;99.90;;;;;;5073343;28;20027;-60
2023/07/13 10:58:28;;;;;;;4.90;1.30;;;23.30;99.90;;;;;;5073200;28;20107;-60
2023/07/13 11:01:06;;;;;;;3.20;1.52;;;23.40;99.90;;;;;;5073484;28;20391;-59
2023/07/13 11:03:36;;;;;;;4.85;1.23;;;23.80;99.90;;;;;;5073125;28;20021;-61
2023/07/13 11:06:09;;;;;;;6.30;1.48;;;23.70;99.90;;;;;;5072809;28;20399;-60
2023/07/13 11:08:56;;;;;;;4.78;1.00;;;23.40;99.90;;;;;;5073132;28;20394;-60
2023/07/13 11:11:25;;;;;;;4.05;1.17;;;23.30;99.90;;;;;;5072954;28;20021;-60
2023/07/13 11:13:50;;;;;;;4.75;1.17;;;23.20;99.90;;;;;;5072900;28;20048;-60
2023/07/13 11:16:22;;;;;;;5.03;1.45;;;22.90;99.90;;;;;;5072582;28;20117;-58
2023/07/13 11:18:49;;;;;;;6.20;1.48;;;22.80;99.90;;;;;;5072594;28;20036;-60
2023/07/13 11:21:19;;;;;;;5.43;1.20;;;22.80;99.90;;;;;;5072713;28;20050;-61
2023/07/13 11:23:52;;;;;;;10.18;2.03;;;22.70;99.90;;;;;;5072710;28;20485;-60
2023/07/13 11:26:47;;;;;;;5.32;1.50;;;22.70;99.90;;;;;;5072563;28;20017;-58
2023/07/13 11:29:30;;;;;;;7.80;1.83;;;22.70;99.90;;;;;;5071445;28;20063;-60
2023/07/13 11:31:59;;;;;;;11.00;1.77;;;22.80;99.90;;;;;;5072594;28;20028;-58
2023/07/13 11:34:35;;;;;;;4.40;1.30;;;23.00;99.90;;;;;;5072407;28;20113;-58
2023/07/13 11:37:01;;;;;;;7.75;1.73;;;22.80;99.90;;;;;;5072209;28;20052;-56
2023/07/13 11:39:35;;;;;;;5.95;1.58;;;22.60;99.90;;;;;;5072237;28;20071;-61
2023/07/13 11:42:05;;;;;;;;;;;22.50;99.90;;;;;;5072690;28;20043;-60
2023/07/13 11:44:34;;;;;;;13.30;1.48;;;22.20;99.90;;;;;;5072232;28;19927;-57
2023/07/13 11:47:10;;;;;;;9.02;1.60;;;22.30;99.90;;;;;;5072115;28;20131;-59
2023/07/13 11:49:49;;;;;;;12.30;1.58;;;22.40;99.90;;;;;;5071880;28;20056;-57
2023/07/13 11:52:17;;;;;;;7.07;1.75;;;22.40;99.90;;;;;;5072127;28;20027;-60
2023/07/13 11:54:51;;;;;;;10.20;3.08;;;22.60;99.90;;;;;;5071153;28;20036;-60
2023/07/13 11:57:31;;;;;;;7.43;2.00;;;22.80;99.90;;;;;;5072035;28;20033;-60
2023/07/13 11:59:59;;;;;;;5.72;1.60;;;22.80;99.90;;;;;;5071760;28;20050;-58
2023/07/13 12:02:38;;;;;;;6.07;2.03;;;22.70;99.90;;;;;;5072002;28;20035;-60
2023/07/13 12:05:05;;;;;;;3.70;1.20;;;22.60;99.90;;;;;;5072152;28;20039;-60
2023/07/13 12:07:32;;;;;;;6.00;0.95;;;22.50;99.90;;;;;;5071732;28;20032;-60
2023/07/13 12:10:25;;;;;;;6.88;1.13;;;22.60;99.90;;;;;;5071564;28;20039;-59
2023/07/13 12:13:01;;;;;;;5.55;1.10;;;22.70;99.90;;;;;;5071407;28;20039;-58
2023/07/13 12:15:46;;;;;;;5.22;1.20;;;22.60;99.90;;;;;;5071690;28;20099;-61
2023/07/13 12:18:28;;;;;;;7.28;1.80;;;22.50;99.90;;;;;;5071539;28;20025;-58
2023/07/13 12:20:57;;;;;;;5.45;1.25;;;22.50;99.90;;;;;;5071711;28;20036;-60
2023/07/13 12:23:28;;;;;;;3.20;1.20;;;22.50;99.90;;;;;;5071683;28;20032;-59
2023/07/13 12:25:56;;;;;;;3.40;1.23;;;22.60;99.90;;;;;;5071584;28;20540;-58
2023/07/13 12:28:29;;;;;;;4.22;1.25;;;22.70;99.90;;;;;;5071518;28;20028;-61
2023/07/13 12:30:59;;;;;;;5.85;1.52;;;22.80;99.90;;;;;;5071528;28;20027;-60
2023/07/13 12:33:28;;;;;;;3.65;1.20;;;22.90;99.90;;;;;;5071461;28;20029;-59
2023/07/13 12:35:55;;;;;;;5.88;1.30;;;22.90;99.90;;;;;;5071662;28;20035;-61
2023/07/13 12:38:22;;;;;;;2.97;1.15;;;22.90;99.90;;;;;;5071456;28;20546;-58
2023/07/13 12:40:50;;;;;;;5.38;1.30;;;22.90;99.90;;;;;;5071217;28;20021;-59
2023/07/13 12:43:17;;;;;;;5.55;1.15;;;22.90;99.90;;;;;;5071577;28;20044;-59
2023/07/13 12:46:03;;;;;;;4.88;1.10;;;22.80;99.90;;;;;;5071290;28;20024;-58
2023/07/13 12:48:29;;;;;;;8.98;1.38;;;22.80;99.90;;;;;;5071198;28;20020;-60
2023/07/13 12:50:55;;;;;;;4.40;1.20;;;22.80;99.90;;;;;;5071387;28;20483;-61
2023/07/13 12:53:30;;;;;;;5.05;0.82;;;22.90;99.90;;;;;;5071336;28;20032;-61